sensor_id;sensor_type;location;lat;lon;timestamp;P1;durP1;ratioP1;P2;durP2;ratioP2
69783;SDS011;57054;51.978;4.498;2023-07-20T00:01:19;2.95;;;2.75;;
69783;SDS011;57054;51.978;4.498;2023-07-20T00:03:44;2.80;;;2.60;;
69783;SDS011;57054;51.978;4.498;2023-07-20T00:06:10;3.03;;;2.72;;
69783;SDS011;57054;51.978;4.498;2023-07-20T00:08:35;3.85;;;2.70;;
69783;SDS011;57054;51.978;4.498;2023-07-20T00:11:01;3.95;;;2.70;;
69783;SDS011;57054;51.978;4.498;2023-07-20T00:13:26;3.38;;;3.08;;
69783;SDS011;57054;51.978;4.498;2023-07-20T00:15:52;3.05;;;2.72;;
69783;SDS011;57054;51.978;4.498;2023-07-20T00:18:18;6.05;;;3.10;;
69783;SDS011;57054;51.978;4.498;2023-07-20T00:20:46;4.32;;;2.67;;
69783;SDS011;57054;51.978;4.498;2023-07-20T00:23:12;3.53;;;3.08;;
69783;SDS011;57054;51.978;4.498;2023-07-20T00:25:37;2.50;;;2.40;;
69783;SDS011;57054;51.978;4.498;2023-07-20T00:28:02;5.22;;;2.60;;
69783;SDS011;57054;51.978;4.498;2023-07-20T00:30:28;3.15;;;2.85;;
69783;SDS011;57054;51.978;4.498;2023-07-20T00:32:53;3.45;;;2.67;;
69783;SDS011;57054;51.978;4.498;2023-07-20T00:35:19;3.63;;;2.50;;
69783;SDS011;57054;51.978;4.498;2023-07-20T00:37:44;2.72;;;2.53;;
69783;SDS011;57054;51.978;4.498;2023-07-20T00:40:09;4.95;;;2.90;;
69783;SDS011;57054;51.978;4.498;2023-07-20T00:42:35;3.88;;;2.90;;
69783;SDS011;57054;51.978;4.498;2023-07-20T00:45:00;4.20;;;2.83;;
69783;SDS011;57054;51.978;4.498;2023-07-20T00:47:26;2.80;;;2.40;;
69783;SDS011;57054;51.978;4.498;2023-07-20T00:49:52;3.03;;;2.70;;
69783;SDS011;57054;51.978;4.498;2023-07-20T00:52:19;3.28;;;2.67;;
69783;SDS011;57054;51.978;4.498;2023-07-20T00:54:47;3.65;;;2.80;;
69783;SDS011;57054;51.978;4.498;2023-07-20T00:57:14;2.72;;;2.50;;
69783;SDS011;57054;51.978;4.498;2023-07-20T00:59:40;3.30;;;3.10;;
69783;SDS011;57054;51.978;4.498;2023-07-20T01:04:33;3.25;;;2.53;;
69783;SDS011;57054;51.978;4.498;2023-07-20T01:07:13;3.15;;;2.83;;
69783;SDS011;57054;51.978;4.498;2023-07-20T01:10:01;2.85;;;2.65;;
69783;SDS011;57054;51.978;4.498;2023-07-20T01:12:41;2.47;;;2.20;;
69783;SDS011;57054;51.978;4.498;2023-07-20T01:15:08;1.95;;;1.85;;
69783;SDS011;57054;51.978;4.498;2023-07-20T01:17:35;2.03;;;1.92;;
69783;SDS011;57054;51.978;4.498;2023-07-20T01:20:00;3.03;;;2.13;;
69783;SDS011;57054;51.978;4.498;2023-07-20T01:28:08;1.67;;;1.58;;
69783;SDS011;57054;51.978;4.498;2023-07-20T01:33:14;1.73;;;1.58;;
69783;SDS011;57054;51.978;4.498;2023-07-20T01:35:42;1.40;;;1.30;;
69783;SDS011;57054;51.978;4.498;2023-07-20T01:38:09;1.70;;;1.60;;
69783;SDS011;57054;51.978;4.498;2023-07-20T01:40:36;3.40;;;1.55;;
69783;SDS011;57054;51.978;4.498;2023-07-20T01:43:03;1.08;;;1.08;;
69783;SDS011;57054;51.978;4.498;2023-07-20T01:45:28;1.40;;;1.30;;
69783;SDS011;57054;51.978;4.498;2023-07-20T01:47:54;0.90;;;0.90;;
69783;SDS011;57054;51.978;4.498;2023-07-20T01:50:20;1.65;;;1.30;;
69783;SDS011;57054;51.978;4.498;2023-07-20T01:52:45;1.15;;;1.08;;
69783;SDS011;57054;51.978;4.498;2023-07-20T01:55:10;0.95;;;0.95;;
69783;SDS011;57054;51.978;4.498;2023-07-20T01:57:36;1.00;;;0.90;;
69783;SDS011;57054;51.978;4.498;2023-07-20T02:00:01;1.25;;;1.00;;
69783;SDS011;57054;51.978;4.498;2023-07-20T02:02:27;2.28;;;0.90;;
69783;SDS011;57054;51.978;4.498;2023-07-20T02:04:53;1.15;;;1.10;;
69783;SDS011;57054;51.978;4.498;2023-07-20T02:07:19;1.08;;;1.08;;
69783;SDS011;57054;51.978;4.498;2023-07-20T02:09:44;1.00;;;1.00;;
69783;SDS011;57054;51.978;4.498;2023-07-20T02:12:10;1.02;;;1.02;;
69783;SDS011;57054;51.978;4.498;2023-07-20T02:14:35;1.15;;;1.05;;
69783;SDS011;57054;51.978;4.498;2023-07-20T02:17:01;0.90;;;0.90;;
69783;SDS011;57054;51.978;4.498;2023-07-20T02:19:28;1.42;;;1.23;;
69783;SDS011;57054;51.978;4.498;2023-07-20T02:21:54;1.00;;;1.00;;
69783;SDS011;57054;51.978;4.498;2023-07-20T02:24:20;1.30;;;1.02;;
69783;SDS011;57054;51.978;4.498;2023-07-20T02:26:45;1.30;;;1.20;;
69783;SDS011;57054;51.978;4.498;2023-07-20T02:29:11;1.20;;;1.10;;
69783;SDS011;57054;51.978;4.498;2023-07-20T02:31:39;1.00;;;1.00;;
69783;SDS011;57054;51.978;4.498;2023-07-20T02:34:05;1.27;;;1.00;;
69783;SDS011;57054;51.978;4.498;2023-07-20T02:36:31;1.10;;;1.10;;
69783;SDS011;57054;51.978;4.498;2023-07-20T02:39:00;0.98;;;0.98;;
69783;SDS011;57054;51.978;4.498;2023-07-20T02:41:28;1.10;;;1.00;;
69783;SDS011;57054;51.978;4.498;2023-07-20T02:43:58;1.00;;;0.98;;
69783;SDS011;57054;51.978;4.498;2023-07-20T02:46:23;1.25;;;1.20;;
69783;SDS011;57054;51.978;4.498;2023-07-20T02:48:49;2.38;;;1.05;;
69783;SDS011;57054;51.978;4.498;2023-07-20T02:51:14;0.98;;;0.98;;
69783;SDS011;57054;51.978;4.498;2023-07-20T02:53:40;1.33;;;1.17;;
69783;SDS011;57054;51.978;4.498;2023-07-20T02:56:06;1.65;;;1.00;;
69783;SDS011;57054;51.978;4.498;2023-07-20T02:58:33;2.95;;;1.17;;
69783;SDS011;57054;51.978;4.498;2023-07-20T03:01:02;1.30;;;1.30;;
69783;SDS011;57054;51.978;4.498;2023-07-20T03:03:28;2.55;;;1.38;;
69783;SDS011;57054;51.978;4.498;2023-07-20T03:05:53;1.75;;;1.50;;
69783;SDS011;57054;51.978;4.498;2023-07-20T03:08:21;1.65;;;1.55;;
69783;SDS011;57054;51.978;4.498;2023-07-20T03:10:47;1.50;;;1.45;;
69783;SDS011;57054;51.978;4.498;2023-07-20T03:13:12;3.25;;;1.52;;
69783;SDS011;57054;51.978;4.498;2023-07-20T03:15:39;1.30;;;1.30;;
69783;SDS011;57054;51.978;4.498;2023-07-20T03:18:04;1.20;;;1.20;;
69783;SDS011;57054;51.978;4.498;2023-07-20T03:20:30;1.75;;;1.30;;
69783;SDS011;57054;51.978;4.498;2023-07-20T03:22:56;1.67;;;1.48;;
69783;SDS011;57054;51.978;4.498;2023-07-20T03:25:22;1.70;;;1.42;;
69783;SDS011;57054;51.978;4.498;2023-07-20T03:27:47;1.63;;;1.52;;
69783;SDS011;57054;51.978;4.498;2023-07-20T03:30:13;1.55;;;1.45;;
69783;SDS011;57054;51.978;4.498;2023-07-20T03:32:39;1.67;;;1.40;;
69783;SDS011;57054;51.978;4.498;2023-07-20T03:35:04;1.83;;;1.65;;
69783;SDS011;57054;51.978;4.498;2023-07-20T03:37:30;1.38;;;1.27;;
69783;SDS011;57054;51.978;4.498;2023-07-20T03:39:56;1.27;;;1.10;;
69783;SDS011;57054;51.978;4.498;2023-07-20T03:42:22;1.30;;;1.20;;
69783;SDS011;57054;51.978;4.498;2023-07-20T03:44:48;2.50;;;1.50;;
69783;SDS011;57054;51.978;4.498;2023-07-20T03:47:14;1.02;;;1.02;;
69783;SDS011;57054;51.978;4.498;2023-07-20T03:49:40;1.30;;;1.30;;
69783;SDS011;57054;51.978;4.498;2023-07-20T03:52:05;1.40;;;1.30;;
69783;SDS011;57054;51.978;4.498;2023-07-20T03:54:31;2.05;;;1.40;;
69783;SDS011;57054;51.978;4.498;2023-07-20T03:56:57;1.50;;;1.40;;
69783;SDS011;57054;51.978;4.498;2023-07-20T03:59:23;1.50;;;1.40;;
69783;SDS011;57054;51.978;4.498;2023-07-20T04:01:49;1.60;;;1.50;;
69783;SDS011;57054;51.978;4.498;2023-07-20T04:04:15;1.55;;;1.45;;
69783;SDS011;57054;51.978;4.498;2023-07-20T04:06:42;1.30;;;1.20;;
69783;SDS011;57054;51.978;4.498;2023-07-20T04:09:09;1.42;;;1.33;;
69783;SDS011;57054;51.978;4.498;2023-07-20T04:11:36;1.60;;;1.50;;
69783;SDS011;57054;51.978;4.498;2023-07-20T04:14:02;1.50;;;1.40;;
69783;SDS011;57054;51.978;4.498;2023-07-20T04:16:27;1.40;;;1.30;;
69783;SDS011;57054;51.978;4.498;2023-07-20T04:18:54;1.77;;;1.33;;
69783;SDS011;57054;51.978;4.498;2023-07-20T04:21:21;3.63;;;1.60;;
69783;SDS011;57054;51.978;4.498;2023-07-20T04:23:47;2.40;;;1.75;;
69783;SDS011;57054;51.978;4.498;2023-07-20T04:26:12;5.20;;;2.05;;
69783;SDS011;57054;51.978;4.498;2023-07-20T04:28:38;2.33;;;1.50;;
69783;SDS011;57054;51.978;4.498;2023-07-20T04:31:14;1.60;;;1.50;;
69783;SDS011;57054;51.978;4.498;2023-07-20T04:33:41;1.80;;;1.70;;
69783;SDS011;57054;51.978;4.498;2023-07-20T04:36:06;2.38;;;1.70;;
69783;SDS011;57054;51.978;4.498;2023-07-20T04:38:33;1.77;;;1.67;;
69783;SDS011;57054;51.978;4.498;2023-07-20T04:40:59;2.08;;;1.90;;
69783;SDS011;57054;51.978;4.498;2023-07-20T04:43:24;1.40;;;1.40;;
69783;SDS011;57054;51.978;4.498;2023-07-20T04:45:50;2.53;;;1.90;;
69783;SDS011;57054;51.978;4.498;2023-07-20T04:48:16;2.38;;;1.80;;
69783;SDS011;57054;51.978;4.498;2023-07-20T04:50:43;1.63;;;1.52;;
69783;SDS011;57054;51.978;4.498;2023-07-20T04:53:10;2.55;;;1.70;;
69783;SDS011;57054;51.978;4.498;2023-07-20T04:55:37;1.63;;;1.55;;
69783;SDS011;57054;51.978;4.498;2023-07-20T04:58:04;3.17;;;2.00;;
69783;SDS011;57054;51.978;4.498;2023-07-20T05:00:31;3.20;;;2.00;;
69783;SDS011;57054;51.978;4.498;2023-07-20T05:02:59;2.20;;;2.00;;
69783;SDS011;57054;51.978;4.498;2023-07-20T05:05:25;2.28;;;2.10;;
69783;SDS011;57054;51.978;4.498;2023-07-20T05:07:51;2.03;;;1.90;;
69783;SDS011;57054;51.978;4.498;2023-07-20T05:10:17;3.05;;;2.40;;
69783;SDS011;57054;51.978;4.498;2023-07-20T05:12:42;2.00;;;1.90;;
69783;SDS011;57054;51.978;4.498;2023-07-20T05:15:08;2.35;;;2.15;;
69783;SDS011;57054;51.978;4.498;2023-07-20T05:17:34;4.05;;;2.20;;
69783;SDS011;57054;51.978;4.498;2023-07-20T05:19:59;2.47;;;2.30;;
69783;SDS011;57054;51.978;4.498;2023-07-20T05:22:25;2.60;;;2.40;;
69783;SDS011;57054;51.978;4.498;2023-07-20T05:24:50;2.33;;;2.22;;
69783;SDS011;57054;51.978;4.498;2023-07-20T05:27:16;2.60;;;2.40;;
69783;SDS011;57054;51.978;4.498;2023-07-20T05:29:45;2.72;;;2.50;;
69783;SDS011;57054;51.978;4.498;2023-07-20T05:32:10;2.90;;;2.70;;
69783;SDS011;57054;51.978;4.498;2023-07-20T05:34:37;3.90;;;2.80;;
69783;SDS011;57054;51.978;4.498;2023-07-20T05:37:02;4.07;;;2.72;;
69783;SDS011;57054;51.978;4.498;2023-07-20T05:39:28;3.08;;;2.88;;
69783;SDS011;57054;51.978;4.498;2023-07-20T05:41:54;2.92;;;2.72;;
69783;SDS011;57054;51.978;4.498;2023-07-20T05:44:20;3.00;;;2.80;;
69783;SDS011;57054;51.978;4.498;2023-07-20T05:46:45;3.30;;;3.10;;
69783;SDS011;57054;51.978;4.498;2023-07-20T05:49:11;4.10;;;3.05;;
69783;SDS011;57054;51.978;4.498;2023-07-20T05:51:36;3.03;;;2.83;;
69783;SDS011;57054;51.978;4.498;2023-07-20T05:54:02;4.35;;;2.72;;
69783;SDS011;57054;51.978;4.498;2023-07-20T05:56:27;3.28;;;3.05;;
69783;SDS011;57054;51.978;4.498;2023-07-20T05:58:53;3.03;;;2.83;;
69783;SDS011;57054;51.978;4.498;2023-07-20T06:01:18;6.03;;;3.50;;
69783;SDS011;57054;51.978;4.498;2023-07-20T06:03:44;3.85;;;3.45;;
69783;SDS011;57054;51.978;4.498;2023-07-20T06:06:10;4.80;;;3.08;;
69783;SDS011;57054;51.978;4.498;2023-07-20T06:08:37;3.20;;;3.00;;
69783;SDS011;57054;51.978;4.498;2023-07-20T06:11:03;3.25;;;2.88;;
69783;SDS011;57054;51.978;4.498;2023-07-20T06:13:29;7.72;;;4.10;;
69783;SDS011;57054;51.978;4.498;2023-07-20T06:15:54;4.22;;;3.92;;
69783;SDS011;57054;51.978;4.498;2023-07-20T06:18:21;4.15;;;3.85;;
69783;SDS011;57054;51.978;4.498;2023-07-20T06:20:51;4.00;;;3.70;;
69783;SDS011;57054;51.978;4.498;2023-07-20T06:25:46;3.42;;;3.13;;
69783;SDS011;57054;51.978;4.498;2023-07-20T06:28:12;2.60;;;2.40;;
69783;SDS011;57054;51.978;4.498;2023-07-20T06:30:38;3.92;;;3.30;;
69783;SDS011;57054;51.978;4.498;2023-07-20T06:33:05;3.45;;;2.65;;
69783;SDS011;57054;51.978;4.498;2023-07-20T06:35:31;3.13;;;2.88;;
69783;SDS011;57054;51.978;4.498;2023-07-20T06:37:57;3.03;;;2.78;;
69783;SDS011;57054;51.978;4.498;2023-07-20T06:40:25;3.00;;;2.50;;
69783;SDS011;57054;51.978;4.498;2023-07-20T06:42:51;5.10;;;2.65;;
69783;SDS011;57054;51.978;4.498;2023-07-20T06:45:16;3.30;;;3.08;;
69783;SDS011;57054;51.978;4.498;2023-07-20T06:47:42;3.33;;;3.03;;
69783;SDS011;57054;51.978;4.498;2023-07-20T06:50:08;2.10;;;2.00;;
69783;SDS011;57054;51.978;4.498;2023-07-20T06:52:35;2.45;;;2.25;;
69783;SDS011;57054;51.978;4.498;2023-07-20T06:55:01;2.15;;;1.70;;
69783;SDS011;57054;51.978;4.498;2023-07-20T06:57:27;3.33;;;1.70;;
69783;SDS011;57054;51.978;4.498;2023-07-20T06:59:53;1.33;;;1.23;;
69783;SDS011;57054;51.978;4.498;2023-07-20T07:02:18;5.30;;;1.30;;
69783;SDS011;57054;51.978;4.498;2023-07-20T07:04:44;4.32;;;1.40;;
69783;SDS011;57054;51.978;4.498;2023-07-20T07:07:15;2.55;;;1.23;;
69783;SDS011;57054;51.978;4.498;2023-07-20T07:12:07;1.42;;;1.00;;
69783;SDS011;57054;51.978;4.498;2023-07-20T07:14:33;1.70;;;0.98;;
69783;SDS011;57054;51.978;4.498;2023-07-20T07:16:59;1.73;;;1.13;;
69783;SDS011;57054;51.978;4.498;2023-07-20T07:19:25;1.38;;;0.93;;
69783;SDS011;57054;51.978;4.498;2023-07-20T07:21:50;2.45;;;1.17;;
69783;SDS011;57054;51.978;4.498;2023-07-20T07:24:16;1.55;;;1.10;;
69783;SDS011;57054;51.978;4.498;2023-07-20T07:26:42;1.10;;;1.00;;
69783;SDS011;57054;51.978;4.498;2023-07-20T07:29:07;2.28;;;0.80;;
69783;SDS011;57054;51.978;4.498;2023-07-20T07:31:33;2.97;;;0.98;;
69783;SDS011;57054;51.978;4.498;2023-07-20T07:34:03;0.73;;;0.73;;
69783;SDS011;57054;51.978;4.498;2023-07-20T07:36:30;2.45;;;0.93;;
69783;SDS011;57054;51.978;4.498;2023-07-20T07:38:56;1.20;;;0.82;;
69783;SDS011;57054;51.978;4.498;2023-07-20T07:41:21;1.77;;;0.90;;
69783;SDS011;57054;51.978;4.498;2023-07-20T07:43:47;1.33;;;0.98;;
69783;SDS011;57054;51.978;4.498;2023-07-20T07:46:12;2.67;;;1.27;;
69783;SDS011;57054;51.978;4.498;2023-07-20T07:48:39;1.92;;;1.10;;
69783;SDS011;57054;51.978;4.498;2023-07-20T07:51:04;0.80;;;0.80;;
69783;SDS011;57054;51.978;4.498;2023-07-20T07:53:30;0.70;;;0.70;;
69783;SDS011;57054;51.978;4.498;2023-07-20T07:55:57;2.50;;;0.88;;
69783;SDS011;57054;51.978;4.498;2023-07-20T07:58:23;3.13;;;0.90;;
69783;SDS011;57054;51.978;4.498;2023-07-20T08:00:48;0.95;;;0.88;;
69783;SDS011;57054;51.978;4.498;2023-07-20T08:03:14;0.93;;;0.80;;
69783;SDS011;57054;51.978;4.498;2023-07-20T08:05:39;1.10;;;1.10;;
69783;SDS011;57054;51.978;4.498;2023-07-20T08:08:05;0.95;;;0.90;;
69783;SDS011;57054;51.978;4.498;2023-07-20T08:10:30;0.88;;;0.85;;
69783;SDS011;57054;51.978;4.498;2023-07-20T08:12:56;2.00;;;0.90;;
69783;SDS011;57054;51.978;4.498;2023-07-20T08:15:21;0.70;;;0.70;;
69783;SDS011;57054;51.978;4.498;2023-07-20T08:17:47;0.82;;;0.80;;
69783;SDS011;57054;51.978;4.498;2023-07-20T08:20:13;1.38;;;1.23;;
69783;SDS011;57054;51.978;4.498;2023-07-20T08:22:39;4.07;;;0.98;;
69783;SDS011;57054;51.978;4.498;2023-07-20T08:25:05;1.10;;;1.00;;
69783;SDS011;57054;51.978;4.498;2023-07-20T08:27:31;2.15;;;1.00;;
69783;SDS011;57054;51.978;4.498;2023-07-20T08:29:56;2.95;;;0.80;;
69783;SDS011;57054;51.978;4.498;2023-07-20T08:32:22;1.55;;;0.85;;
69783;SDS011;57054;51.978;4.498;2023-07-20T08:34:47;2.83;;;0.90;;
69783;SDS011;57054;51.978;4.498;2023-07-20T08:37:13;1.27;;;1.05;;
69783;SDS011;57054;51.978;4.498;2023-07-20T08:39:38;2.08;;;1.05;;
69783;SDS011;57054;51.978;4.498;2023-07-20T08:42:04;0.85;;;0.85;;
69783;SDS011;57054;51.978;4.498;2023-07-20T08:44:34;1.60;;;1.10;;
69783;SDS011;57054;51.978;4.498;2023-07-20T08:47:03;5.10;;;0.90;;
69783;SDS011;57054;51.978;4.498;2023-07-20T08:49:31;2.90;;;1.10;;
69783;SDS011;57054;51.978;4.498;2023-07-20T08:51:57;1.10;;;0.90;;
69783;SDS011;57054;51.978;4.498;2023-07-20T08:54:24;1.50;;;0.88;;
69783;SDS011;57054;51.978;4.498;2023-07-20T08:56:54;0.73;;;0.73;;
69783;SDS011;57054;51.978;4.498;2023-07-20T08:59:22;0.77;;;0.77;;
69783;SDS011;57054;51.978;4.498;2023-07-20T09:01:49;3.20;;;0.80;;
69783;SDS011;57054;51.978;4.498;2023-07-20T09:04:19;0.70;;;0.63;;
69783;SDS011;57054;51.978;4.498;2023-07-20T09:06:45;0.88;;;0.60;;
69783;SDS011;57054;51.978;4.498;2023-07-20T09:09:12;1.35;;;0.70;;
69783;SDS011;57054;51.978;4.498;2023-07-20T09:11:38;0.60;;;0.60;;
69783;SDS011;57054;51.978;4.498;2023-07-20T09:14:07;0.70;;;0.60;;
69783;SDS011;57054;51.978;4.498;2023-07-20T09:19:37;0.80;;;0.80;;
69783;SDS011;57054;51.978;4.498;2023-07-20T09:22:03;4.22;;;0.88;;
69783;SDS011;57054;51.978;4.498;2023-07-20T09:24:30;1.00;;;0.70;;
69783;SDS011;57054;51.978;4.498;2023-07-20T09:26:57;0.50;;;0.50;;
69783;SDS011;57054;51.978;4.498;2023-07-20T09:29:28;0.60;;;0.60;;
69783;SDS011;57054;51.978;4.498;2023-07-20T09:32:04;0.57;;;0.50;;
69783;SDS011;57054;51.978;4.498;2023-07-20T09:34:30;0.73;;;0.70;;
69783;SDS011;57054;51.978;4.498;2023-07-20T09:36:59;1.23;;;0.80;;
69783;SDS011;57054;51.978;4.498;2023-07-20T09:39:25;0.63;;;0.63;;
69783;SDS011;57054;51.978;4.498;2023-07-20T09:41:51;0.52;;;0.50;;
69783;SDS011;57054;51.978;4.498;2023-07-20T09:44:17;0.50;;;0.50;;
69783;SDS011;57054;51.978;4.498;2023-07-20T09:46:49;1.90;;;0.90;;
69783;SDS011;57054;51.978;4.498;2023-07-20T09:49:18;1.17;;;0.50;;
69783;SDS011;57054;51.978;4.498;2023-07-20T09:51:44;0.65;;;0.63;;
69783;SDS011;57054;51.978;4.498;2023-07-20T09:54:11;1.35;;;0.68;;
69783;SDS011;57054;51.978;4.498;2023-07-20T09:56:38;0.98;;;0.70;;
69783;SDS011;57054;51.978;4.498;2023-07-20T09:59:05;0.60;;;0.60;;
69783;SDS011;57054;51.978;4.498;2023-07-20T10:01:31;0.77;;;0.63;;
69783;SDS011;57054;51.978;4.498;2023-07-20T10:03:59;1.23;;;0.70;;
69783;SDS011;57054;51.978;4.498;2023-07-20T10:06:29;0.60;;;0.60;;
69783;SDS011;57054;51.978;4.498;2023-07-20T10:09:00;3.08;;;0.95;;
69783;SDS011;57054;51.978;4.498;2023-07-20T10:11:29;1.55;;;0.70;;
69783;SDS011;57054;51.978;4.498;2023-07-20T10:16:36;0.70;;;0.70;;
69783;SDS011;57054;51.978;4.498;2023-07-20T10:22:00;1.27;;;0.85;;
69783;SDS011;57054;51.978;4.498;2023-07-20T10:24:29;0.50;;;0.50;;
69783;SDS011;57054;51.978;4.498;2023-07-20T10:26:57;0.60;;;0.60;;
69783;SDS011;57054;51.978;4.498;2023-07-20T10:29:23;0.80;;;0.80;;
69783;SDS011;57054;51.978;4.498;2023-07-20T10:31:49;1.00;;;0.60;;
69783;SDS011;57054;51.978;4.498;2023-07-20T10:34:15;0.63;;;0.63;;
69783;SDS011;57054;51.978;4.498;2023-07-20T10:36:45;0.75;;;0.70;;
69783;SDS011;57054;51.978;4.498;2023-07-20T10:39:27;0.70;;;0.70;;
69783;SDS011;57054;51.978;4.498;2023-07-20T10:44:28;0.70;;;0.70;;
69783;SDS011;57054;51.978;4.498;2023-07-20T10:47:01;0.90;;;0.70;;
69783;SDS011;57054;51.978;4.498;2023-07-20T10:49:32;1.15;;;0.85;;
69783;SDS011;57054;51.978;4.498;2023-07-20T10:51:59;1.37;;;0.70;;
69783;SDS011;57054;51.978;4.498;2023-07-20T10:56:55;1.25;;;0.82;;
69783;SDS011;57054;51.978;4.498;2023-07-20T11:01:57;0.63;;;0.63;;
69783;SDS011;57054;51.978;4.498;2023-07-20T11:04:37;0.88;;;0.63;;
69783;SDS011;57054;51.978;4.498;2023-07-20T11:07:03;0.90;;;0.88;;
69783;SDS011;57054;51.978;4.498;2023-07-20T11:09:33;0.63;;;0.63;;
69783;SDS011;57054;51.978;4.498;2023-07-20T11:12:09;2.13;;;0.95;;
69783;SDS011;57054;51.978;4.498;2023-07-20T11:17:29;1.50;;;0.82;;
69783;SDS011;57054;51.978;4.498;2023-07-20T11:19:56;0.60;;;0.60;;
69783;SDS011;57054;51.978;4.498;2023-07-20T11:22:22;0.57;;;0.57;;
69783;SDS011;57054;51.978;4.498;2023-07-20T11:24:48;1.75;;;0.68;;
69783;SDS011;57054;51.978;4.498;2023-07-20T11:27:14;0.98;;;0.88;;
69783;SDS011;57054;51.978;4.498;2023-07-20T11:29:40;0.70;;;0.60;;
69783;SDS011;57054;51.978;4.498;2023-07-20T11:32:06;0.60;;;0.60;;
69783;SDS011;57054;51.978;4.498;2023-07-20T11:34:32;1.15;;;0.60;;
69783;SDS011;57054;51.978;4.498;2023-07-20T11:36:59;0.77;;;0.70;;
69783;SDS011;57054;51.978;4.498;2023-07-20T11:39:24;0.50;;;0.50;;
69783;SDS011;57054;51.978;4.498;2023-07-20T11:41:54;0.80;;;0.77;;
69783;SDS011;57054;51.978;4.498;2023-07-20T11:44:20;0.95;;;0.85;;
69783;SDS011;57054;51.978;4.498;2023-07-20T11:46:53;3.35;;;0.80;;
69783;SDS011;57054;51.978;4.498;2023-07-20T11:49:29;1.23;;;0.80;;
69783;SDS011;57054;51.978;4.498;2023-07-20T11:51:55;0.73;;;0.60;;
69783;SDS011;57054;51.978;4.498;2023-07-20T11:54:22;1.05;;;0.75;;
69783;SDS011;57054;51.978;4.498;2023-07-20T11:56:53;1.15;;;0.80;;
69783;SDS011;57054;51.978;4.498;2023-07-20T11:59:18;0.73;;;0.73;;
69783;SDS011;57054;51.978;4.498;2023-07-20T12:01:44;0.85;;;0.70;;
69783;SDS011;57054;51.978;4.498;2023-07-20T12:04:10;0.60;;;0.60;;
69783;SDS011;57054;51.978;4.498;2023-07-20T12:06:35;0.95;;;0.85;;
69783;SDS011;57054;51.978;4.498;2023-07-20T12:09:00;0.93;;;0.82;;
69783;SDS011;57054;51.978;4.498;2023-07-20T12:11:33;1.33;;;1.23;;
69783;SDS011;57054;51.978;4.498;2023-07-20T12:14:11;0.95;;;0.68;;
69783;SDS011;57054;51.978;4.498;2023-07-20T12:16:37;1.27;;;0.55;;
69783;SDS011;57054;51.978;4.498;2023-07-20T12:19:10;1.00;;;0.70;;
69783;SDS011;57054;51.978;4.498;2023-07-20T12:21:39;1.13;;;0.70;;
69783;SDS011;57054;51.978;4.498;2023-07-20T12:24:07;2.15;;;0.80;;
69783;SDS011;57054;51.978;4.498;2023-07-20T12:26:34;0.65;;;0.65;;
69783;SDS011;57054;51.978;4.498;2023-07-20T12:29:00;1.25;;;1.02;;
69783;SDS011;57054;51.978;4.498;2023-07-20T12:31:26;0.60;;;0.50;;
69783;SDS011;57054;51.978;4.498;2023-07-20T12:33:52;0.60;;;0.60;;
69783;SDS011;57054;51.978;4.498;2023-07-20T12:36:20;0.70;;;0.70;;
69783;SDS011;57054;51.978;4.498;2023-07-20T12:38:46;0.88;;;0.80;;
69783;SDS011;57054;51.978;4.498;2023-07-20T12:41:11;0.95;;;0.73;;
69783;SDS011;57054;51.978;4.498;2023-07-20T12:43:38;0.70;;;0.68;;
69783;SDS011;57054;51.978;4.498;2023-07-20T12:46:05;0.88;;;0.70;;
69783;SDS011;57054;51.978;4.498;2023-07-20T12:48:31;0.73;;;0.70;;
69783;SDS011;57054;51.978;4.498;2023-07-20T12:50:56;1.15;;;0.90;;
69783;SDS011;57054;51.978;4.498;2023-07-20T12:53:22;0.57;;;0.50;;
69783;SDS011;57054;51.978;4.498;2023-07-20T12:55:47;0.60;;;0.60;;
69783;SDS011;57054;51.978;4.498;2023-07-20T12:58:13;0.88;;;0.60;;
69783;SDS011;57054;51.978;4.498;2023-07-20T13:00:39;1.05;;;0.70;;
69783;SDS011;57054;51.978;4.498;2023-07-20T13:03:05;1.50;;;0.70;;
69783;SDS011;57054;51.978;4.498;2023-07-20T13:05:32;1.38;;;0.70;;
69783;SDS011;57054;51.978;4.498;2023-07-20T13:07:57;1.17;;;0.60;;
69783;SDS011;57054;51.978;4.498;2023-07-20T13:10:23;0.55;;;0.50;;
69783;SDS011;57054;51.978;4.498;2023-07-20T13:12:49;0.73;;;0.70;;
69783;SDS011;57054;51.978;4.498;2023-07-20T13:15:14;0.88;;;0.68;;
69783;SDS011;57054;51.978;4.498;2023-07-20T13:17:40;0.65;;;0.60;;
69783;SDS011;57054;51.978;4.498;2023-07-20T13:20:06;0.82;;;0.75;;
69783;SDS011;57054;51.978;4.498;2023-07-20T13:22:35;0.50;;;0.50;;
69783;SDS011;57054;51.978;4.498;2023-07-20T13:25:00;1.60;;;0.60;;
69783;SDS011;57054;51.978;4.498;2023-07-20T13:27:26;0.88;;;0.70;;
69783;SDS011;57054;51.978;4.498;2023-07-20T13:29:52;0.68;;;0.60;;
69783;SDS011;57054;51.978;4.498;2023-07-20T13:32:18;0.70;;;0.70;;
69783;SDS011;57054;51.978;4.498;2023-07-20T13:34:43;0.80;;;0.65;;
69783;SDS011;57054;51.978;4.498;2023-07-20T13:37:13;0.90;;;0.50;;
69783;SDS011;57054;51.978;4.498;2023-07-20T13:39:38;2.33;;;0.90;;
69783;SDS011;57054;51.978;4.498;2023-07-20T13:42:05;0.60;;;0.60;;
69783;SDS011;57054;51.978;4.498;2023-07-20T13:44:31;0.90;;;0.68;;
69783;SDS011;57054;51.978;4.498;2023-07-20T13:46:56;0.50;;;0.50;;
69783;SDS011;57054;51.978;4.498;2023-07-20T13:49:22;0.63;;;0.60;;
69783;SDS011;57054;51.978;4.498;2023-07-20T13:51:47;1.25;;;0.60;;
69783;SDS011;57054;51.978;4.498;2023-07-20T13:54:13;1.67;;;0.52;;
69783;SDS011;57054;51.978;4.498;2023-07-20T13:56:38;0.52;;;0.52;;
69783;SDS011;57054;51.978;4.498;2023-07-20T13:59:03;0.40;;;0.40;;
69783;SDS011;57054;51.978;4.498;2023-07-20T14:01:29;0.68;;;0.50;;
69783;SDS011;57054;51.978;4.498;2023-07-20T14:03:56;1.17;;;0.50;;
69783;SDS011;57054;51.978;4.498;2023-07-20T14:06:22;1.17;;;0.55;;
69783;SDS011;57054;51.978;4.498;2023-07-20T14:08:47;1.38;;;0.50;;
69783;SDS011;57054;51.978;4.498;2023-07-20T14:11:14;0.60;;;0.50;;
69783;SDS011;57054;51.978;4.498;2023-07-20T14:13:40;0.63;;;0.60;;
69783;SDS011;57054;51.978;4.498;2023-07-20T14:16:06;0.70;;;0.43;;
69783;SDS011;57054;51.978;4.498;2023-07-20T14:18:32;0.60;;;0.60;;
69783;SDS011;57054;51.978;4.498;2023-07-20T14:20:58;0.65;;;0.50;;
69783;SDS011;57054;51.978;4.498;2023-07-20T14:23:24;0.40;;;0.40;;
69783;SDS011;57054;51.978;4.498;2023-07-20T14:25:49;0.40;;;0.40;;
69783;SDS011;57054;51.978;4.498;2023-07-20T14:28:15;0.47;;;0.47;;
69783;SDS011;57054;51.978;4.498;2023-07-20T14:30:41;0.47;;;0.47;;
69783;SDS011;57054;51.978;4.498;2023-07-20T14:33:07;0.65;;;0.50;;
69783;SDS011;57054;51.978;4.498;2023-07-20T14:35:33;0.40;;;0.40;;
69783;SDS011;57054;51.978;4.498;2023-07-20T14:38:00;0.50;;;0.50;;
69783;SDS011;57054;51.978;4.498;2023-07-20T14:40:26;0.57;;;0.40;;
69783;SDS011;57054;51.978;4.498;2023-07-20T14:42:52;0.40;;;0.40;;
69783;SDS011;57054;51.978;4.498;2023-07-20T14:45:18;0.52;;;0.40;;
69783;SDS011;57054;51.978;4.498;2023-07-20T14:47:44;0.95;;;0.50;;
69783;SDS011;57054;51.978;4.498;2023-07-20T14:50:10;0.50;;;0.50;;
69783;SDS011;57054;51.978;4.498;2023-07-20T14:52:36;0.45;;;0.45;;
69783;SDS011;57054;51.978;4.498;2023-07-20T14:55:02;2.00;;;0.40;;
69783;SDS011;57054;51.978;4.498;2023-07-20T14:57:27;0.32;;;0.32;;
69783;SDS011;57054;51.978;4.498;2023-07-20T14:59:53;0.65;;;0.47;;
69783;SDS011;57054;51.978;4.498;2023-07-20T15:02:18;1.02;;;0.40;;
69783;SDS011;57054;51.978;4.498;2023-07-20T15:04:47;1.85;;;0.50;;
69783;SDS011;57054;51.978;4.498;2023-07-20T15:07:14;2.25;;;0.52;;
69783;SDS011;57054;51.978;4.498;2023-07-20T15:09:41;0.40;;;0.40;;
69783;SDS011;57054;51.978;4.498;2023-07-20T15:12:06;0.60;;;0.30;;
69783;SDS011;57054;51.978;4.498;2023-07-20T15:14:32;0.65;;;0.65;;
69783;SDS011;57054;51.978;4.498;2023-07-20T15:16:58;2.97;;;0.90;;
69783;SDS011;57054;51.978;4.498;2023-07-20T15:19:23;6.25;;;1.70;;